createdAt,value
2023-02-17T00:00:56.071Z,48.67
2023-02-17T00:03:24.090Z,44.47
2023-02-17T00:05:52.049Z,46.75
2023-02-17T00:08:19.746Z,48.35
2023-02-17T00:10:56.380Z,46.85
2023-02-17T00:13:25.543Z,50.42
2023-02-17T00:15:53.519Z,44.25
2023-02-17T00:18:21.642Z,43.50
2023-02-17T00:20:49.740Z,48.03
2023-02-17T00:23:17.546Z,46.33
2023-02-17T00:25:45.632Z,41.20
2023-02-17T00:28:13.512Z,45.53
2023-02-17T00:30:42.783Z,48.00
2023-02-17T00:33:10.544Z,44.88
2023-02-17T00:35:40.866Z,45.90
2023-02-17T00:38:09.902Z,45.00
2023-02-17T00:40:38.790Z,45.40
2023-02-17T00:43:06.777Z,44.33
2023-02-17T00:45:34.720Z,47.45
2023-02-17T00:48:04.401Z,47.97
2023-02-17T00:50:32.124Z,44.92
2023-02-17T00:53:00.134Z,45.40
2023-02-17T00:55:28.583Z,48.10
2023-02-17T00:57:56.225Z,48.60
2023-02-17T01:00:24.460Z,48.47
2023-02-17T01:02:52.431Z,48.55
2023-02-17T01:05:21.576Z,49.13
2023-02-17T01:07:49.649Z,48.22
2023-02-17T01:10:17.572Z,53.28
2023-02-17T01:12:46.406Z,47.53
2023-02-17T01:15:14.112Z,47.90
2023-02-17T01:17:43.802Z,52.63
2023-02-17T01:20:11.992Z,49.58
2023-02-17T01:22:41.317Z,49.75
2023-02-17T01:25:09.470Z,46.20
2023-02-17T01:27:37.558Z,52.50
2023-02-17T01:30:06.287Z,46.90
2023-02-17T01:32:34.302Z,45.13
2023-02-17T01:35:01.966Z,44.28
2023-02-17T01:37:29.645Z,47.08
2023-02-17T01:39:58.616Z,42.85
2023-02-17T01:42:26.580Z,40.97
2023-02-17T01:45:41.099Z,43.13
2023-02-17T01:48:11.389Z,45.03
2023-02-17T01:50:42.291Z,40.47
2023-02-17T01:53:12.240Z,44.08
2023-02-17T01:55:42.620Z,38.88
2023-02-17T01:58:13.154Z,38.88
2023-02-17T02:00:41.444Z,39.13
2023-02-17T02:03:11.913Z,38.28
2023-02-17T02:05:41.070Z,38.92
2023-02-17T02:08:10.098Z,37.58
2023-02-17T02:10:37.983Z,41.10
2023-02-17T02:13:08.685Z,33.80
2023-02-17T02:15:40.190Z,34.25
2023-02-17T02:18:35.965Z,34.40
2023-02-17T02:21:43.266Z,32.95
2023-02-17T02:24:22.458Z,31.52
2023-02-17T02:27:16.854Z,31.40
2023-02-17T02:29:59.765Z,34.65
2023-02-17T02:32:57.247Z,28.85
2023-02-17T02:35:32.773Z,29.00
2023-02-17T02:38:06.973Z,29.13
2023-02-17T02:40:37.994Z,31.20
2023-02-17T02:43:06.158Z,27.13
2023-02-17T02:45:34.875Z,25.98
2023-02-17T02:48:04.078Z,28.10
2023-02-17T02:50:42.544Z,28.10
2023-02-17T02:53:38.083Z,27.20
2023-02-17T02:56:11.974Z,27.55
2023-02-17T02:58:47.403Z,25.35
2023-02-17T03:01:20.681Z,24.80
2023-02-17T03:03:54.767Z,26.50
2023-02-17T03:06:27.762Z,24.58
2023-02-17T03:08:58.554Z,24.13
2023-02-17T03:11:33.120Z,21.92
2023-02-17T03:14:03.950Z,25.13
2023-02-17T03:16:32.168Z,24.17
2023-02-17T03:19:01.385Z,24.02
2023-02-17T03:21:35.586Z,23.17
2023-02-17T03:24:03.541Z,19.65
2023-02-17T03:26:31.644Z,22.02
2023-02-17T03:28:59.629Z,20.88
2023-02-17T03:31:30.365Z,20.02
2023-02-17T03:33:58.724Z,22.13
2023-02-17T03:36:29.846Z,20.40
2023-02-17T03:38:57.744Z,25.48
2023-02-17T03:41:25.578Z,22.45
2023-02-17T03:43:53.319Z,21.33
2023-02-17T03:46:21.021Z,19.92
2023-02-17T03:48:49.074Z,20.30
2023-02-17T03:51:18.967Z,18.77
2023-02-17T03:53:48.993Z,22.52
2023-02-17T03:56:17.509Z,20.27
2023-02-17T03:58:45.927Z,22.30
2023-02-17T04:01:13.962Z,20.45
2023-02-17T04:03:42.293Z,22.13
2023-02-17T04:06:10.618Z,21.17
2023-02-17T04:08:39.240Z,19.95
2023-02-17T04:11:09.995Z,21.17
2023-02-17T04:13:38.259Z,21.42
2023-02-17T04:16:07.164Z,23.45
2023-02-17T04:18:35.801Z,22.10
2023-02-17T04:21:03.929Z,21.60
2023-02-17T04:23:31.675Z,24.75
2023-02-17T04:25:59.631Z,23.45
2023-02-17T04:28:29.121Z,23.50
2023-02-17T04:30:58.947Z,23.63
2023-02-17T04:33:27.218Z,20.55
2023-02-17T04:35:59.431Z,21.27
2023-02-17T04:38:28.287Z,20.98
2023-02-17T04:40:56.444Z,19.55
2023-02-17T04:43:24.407Z,22.52
2023-02-17T04:45:53.883Z,22.23
2023-02-17T04:48:22.214Z,22.27
2023-02-17T04:50:49.906Z,20.80
2023-02-17T04:53:17.983Z,23.95
2023-02-17T04:55:45.891Z,23.20
2023-02-17T04:58:13.981Z,23.00
2023-02-17T05:00:41.617Z,22.30
2023-02-17T05:03:10.720Z,22.45
2023-02-17T05:05:38.536Z,24.27
2023-02-17T05:08:06.305Z,22.52
2023-02-17T05:10:33.980Z,25.50
2023-02-17T05:13:01.676Z,25.83
2023-02-17T05:15:29.838Z,24.80
2023-02-17T05:17:57.571Z,23.92
2023-02-17T05:20:26.760Z,20.75
2023-02-17T05:22:54.486Z,22.67
2023-02-17T05:25:22.888Z,22.48
2023-02-17T05:27:50.624Z,22.33
2023-02-17T05:30:18.387Z,21.65
2023-02-17T05:32:46.136Z,21.55
2023-02-17T05:35:13.896Z,25.25
2023-02-17T05:37:42.941Z,21.35
2023-02-17T05:40:11.235Z,23.88
2023-02-17T05:42:39.352Z,26.15
2023-02-17T05:45:07.466Z,24.25
2023-02-17T05:47:35.409Z,21.58
2023-02-17T05:50:03.547Z,22.75
2023-02-17T05:52:31.262Z,22.38
2023-02-17T05:55:00.665Z,23.35
2023-02-17T05:57:28.498Z,21.95
2023-02-17T05:59:56.181Z,22.80
2023-02-17T06:02:23.891Z,22.98
2023-02-17T06:04:51.863Z,21.23
2023-02-17T06:07:19.637Z,26.75
2023-02-17T06:09:47.440Z,25.77
2023-02-17T06:12:16.598Z,28.60
2023-02-17T06:14:44.630Z,26.35
2023-02-17T06:17:12.571Z,24.88
2023-02-17T06:19:40.349Z,27.67
2023-02-17T06:22:08.427Z,30.55
2023-02-17T06:24:36.047Z,25.05
2023-02-17T06:27:03.708Z,24.27
2023-02-17T06:29:32.895Z,27.63
2023-02-17T06:32:01.332Z,25.63
2023-02-17T06:34:29.163Z,27.83
2023-02-17T06:36:57.244Z,23.33
2023-02-17T06:39:24.918Z,26.50
2023-02-17T06:41:52.652Z,26.55
2023-02-17T06:44:20.578Z,28.88
2023-02-17T06:46:49.620Z,26.05
2023-02-17T06:49:17.420Z,27.20
2023-02-17T06:51:52.721Z,30.60
2023-02-17T06:54:20.429Z,33.72
2023-02-17T06:56:48.229Z,34.80
2023-02-17T06:59:16.276Z,33.15
2023-02-17T07:01:43.982Z,35.28
2023-02-17T07:04:12.995Z,34.85
2023-02-17T07:06:40.607Z,35.08
2023-02-17T07:09:08.442Z,37.20
2023-02-17T07:11:36.117Z,40.90
2023-02-17T07:14:03.832Z,31.55
2023-02-17T07:16:31.551Z,39.17
2023-02-17T07:18:59.285Z,38.42
2023-02-17T07:21:28.354Z,36.83
2023-02-17T07:23:56.089Z,39.80
2023-02-17T07:26:23.855Z,37.78
2023-02-17T07:28:51.690Z,39.85
2023-02-17T07:31:19.534Z,39.05
2023-02-17T07:33:48.570Z,38.50
2023-02-17T07:36:19.760Z,39.13
2023-02-17T07:38:49.036Z,39.67
2023-02-17T07:41:18.635Z,41.25
2023-02-17T07:43:46.594Z,36.65
2023-02-17T07:46:17.296Z,42.67
2023-02-17T07:48:45.031Z,43.55
2023-02-17T07:51:14.170Z,38.97
2023-02-17T07:53:42.097Z,44.25
2023-02-17T07:56:12.811Z,40.03
2023-02-17T07:58:42.310Z,40.15
2023-02-17T08:01:11.099Z,40.92
2023-02-17T08:03:39.177Z,38.67
2023-02-17T08:06:10.185Z,41.63
2023-02-17T08:08:55.895Z,37.47
2023-02-17T08:11:44.114Z,32.53
2023-02-17T08:14:13.265Z,34.88
2023-02-17T08:16:41.680Z,36.00
2023-02-17T08:19:09.418Z,32.70
2023-02-17T08:21:37.086Z,37.42
2023-02-17T08:24:05.162Z,31.27
2023-02-17T08:26:34.187Z,36.50
2023-02-17T08:29:01.891Z,30.02
2023-02-17T08:31:31.768Z,32.92
2023-02-17T08:34:01.203Z,30.25
2023-02-17T08:36:29.494Z,28.95
2023-02-17T08:38:58.448Z,25.00
2023-02-17T08:41:29.444Z,26.95
2023-02-17T08:43:59.111Z,23.38
2023-02-17T08:46:27.540Z,25.25
2023-02-17T08:48:56.271Z,23.98
2023-02-17T08:51:26.238Z,24.52
2023-02-17T08:53:56.160Z,24.85
2023-02-17T08:56:24.476Z,22.40
2023-02-17T08:58:52.452Z,20.85
2023-02-17T09:01:22.458Z,23.55
2023-02-17T09:03:51.859Z,16.30
2023-02-17T09:06:19.993Z,19.00
2023-02-17T09:08:48.626Z,20.55
2023-02-17T09:11:18.952Z,18.67
2023-02-17T09:13:46.668Z,20.58
2023-02-17T09:16:14.416Z,20.08
2023-02-17T09:18:43.483Z,18.08
2023-02-17T09:21:13.737Z,16.27
2023-02-17T09:23:42.034Z,17.65
2023-02-17T09:26:11.806Z,20.25
2023-02-17T09:28:40.033Z,15.80
2023-02-17T09:31:12.598Z,17.48
2023-02-17T09:33:41.092Z,15.13
2023-02-17T09:36:11.926Z,16.05
2023-02-17T09:38:41.650Z,17.98
2023-02-17T09:41:16.598Z,13.25
2023-02-17T09:43:44.799Z,16.42
2023-02-17T09:46:16.988Z,14.50
2023-02-17T09:48:45.617Z,12.35
2023-02-17T09:51:20.973Z,11.15
2023-02-17T09:53:53.468Z,12.13
2023-02-17T09:56:23.985Z,13.50
2023-02-17T09:58:54.318Z,12.55
2023-02-17T10:01:24.391Z,14.40
2023-02-17T10:03:55.794Z,11.43
2023-02-17T10:06:27.460Z,13.88
2023-02-17T10:08:59.957Z,10.98
2023-02-17T10:11:31.705Z,12.05
2023-02-17T10:14:03.971Z,15.10
2023-02-17T10:16:35.889Z,12.98
2023-02-17T10:19:09.311Z,14.48
2023-02-17T10:21:41.960Z,19.42
2023-02-17T10:24:09.638Z,17.77
2023-02-17T10:26:50.107Z,18.73
2023-02-17T10:29:23.471Z,17.95
2023-02-17T10:32:04.300Z,16.10
2023-02-17T10:34:36.167Z,20.80
2023-02-17T10:37:12.509Z,20.25
2023-02-17T10:39:47.697Z,19.08
2023-02-17T10:42:21.651Z,19.10
2023-02-17T10:44:50.475Z,22.45
2023-02-17T10:47:18.623Z,16.70
2023-02-17T10:49:49.535Z,20.75
2023-02-17T10:52:20.412Z,18.27
2023-02-17T10:54:52.605Z,19.80
2023-02-17T10:57:21.289Z,19.60
2023-02-17T10:59:49.982Z,17.15
2023-02-17T11:02:23.123Z,18.05
2023-02-17T11:04:54.652Z,18.10
2023-02-17T11:07:32.415Z,20.48
2023-02-17T11:10:02.239Z,18.58
2023-02-17T11:12:34.456Z,21.48
2023-02-17T11:15:04.594Z,16.52
2023-02-17T11:17:36.973Z,18.27
2023-02-17T11:20:10.269Z,15.93
2023-02-17T11:22:41.599Z,14.43
2023-02-17T11:25:22.623Z,16.30
2023-02-17T11:27:54.186Z,16.85
2023-02-17T11:30:22.163Z,15.45
2023-02-17T11:32:50.043Z,16.63
2023-02-17T11:35:24.898Z,17.30
2023-02-17T11:37:54.937Z,20.25
2023-02-17T11:40:27.479Z,18.75
2023-02-17T11:43:00.143Z,18.50
2023-02-17T11:45:32.660Z,18.02
2023-02-17T11:48:13.099Z,19.17
2023-02-17T11:50:46.046Z,20.92
2023-02-17T11:53:26.246Z,18.70
2023-02-17T11:56:07.015Z,14.98
2023-02-17T11:59:03.546Z,15.27
2023-02-17T12:01:44.810Z,16.83
2023-02-17T12:04:22.831Z,17.13
2023-02-17T12:07:01.253Z,16.08
2023-02-17T12:09:37.419Z,16.20
2023-02-17T12:12:12.136Z,16.52
2023-02-17T12:14:59.810Z,17.35
2023-02-17T12:17:39.577Z,16.55
2023-02-17T12:20:21.912Z,14.00
2023-02-17T12:22:57.897Z,15.30
2023-02-17T12:25:28.977Z,15.75
2023-02-17T12:28:12.908Z,14.02
2023-02-17T12:30:52.063Z,13.50
2023-02-17T12:33:41.443Z,12.15
2023-02-17T12:36:11.171Z,11.32
2023-02-17T12:38:43.183Z,13.05
2023-02-17T12:41:14.564Z,10.15
2023-02-17T12:43:44.403Z,11.75
2023-02-17T12:46:13.982Z,9.98
2023-02-17T12:48:44.736Z,13.10
2023-02-17T12:51:17.041Z,12.65
2023-02-17T12:53:47.761Z,12.57
2023-02-17T12:56:41.478Z,11.93
2023-02-17T12:59:16.300Z,10.63
2023-02-17T13:01:50.677Z,8.10
2023-02-17T13:04:20.134Z,10.38
2023-02-17T13:06:51.907Z,10.20
2023-02-17T13:09:28.863Z,8.15
2023-02-17T13:12:10.548Z,9.10
2023-02-17T13:14:43.946Z,9.40
2023-02-17T13:17:24.689Z,9.75
2023-02-17T13:20:16.814Z,13.13
2023-02-17T13:22:46.478Z,10.27
2023-02-17T13:25:27.173Z,9.32
2023-02-17T13:27:56.321Z,8.85
2023-02-17T13:30:31.224Z,15.43
2023-02-17T13:33:03.235Z,9.27
2023-02-17T13:35:34.306Z,7.53
2023-02-17T13:38:02.363Z,8.70
2023-02-17T13:40:35.867Z,7.35
2023-02-17T13:43:15.635Z,7.22
2023-02-17T13:45:45.786Z,7.05
2023-02-17T13:48:16.418Z,9.05
2023-02-17T13:50:46.266Z,7.25
2023-02-17T13:53:29.161Z,6.18
2023-02-17T13:55:58.844Z,8.13
2023-02-17T13:58:29.839Z,6.72
2023-02-17T14:00:59.272Z,7.32
2023-02-17T14:03:29.138Z,7.55
2023-02-17T14:05:58.406Z,9.32
2023-02-17T14:08:33.897Z,6.93
2023-02-17T14:11:07.220Z,12.07
2023-02-17T14:13:37.294Z,4.32
2023-02-17T14:16:06.715Z,11.82
2023-02-17T14:18:37.788Z,6.55
2023-02-17T14:21:11.320Z,11.05
2023-02-17T14:23:44.452Z,8.25
2023-02-17T14:26:14.062Z,9.15
2023-02-17T14:28:54.346Z,7.82
2023-02-17T14:31:22.882Z,11.20
2023-02-17T14:33:58.842Z,19.77
2023-02-17T14:36:29.898Z,11.38
2023-02-17T14:38:58.505Z,13.68
2023-02-17T14:41:27.248Z,7.85
2023-02-17T14:43:56.314Z,9.52
2023-02-17T14:46:24.503Z,9.98
2023-02-17T14:48:52.618Z,13.57
2023-02-17T14:51:22.214Z,11.10
2023-02-17T14:53:51.236Z,12.95
2023-02-17T14:56:22.675Z,9.27
2023-02-17T14:58:50.408Z,10.70
2023-02-17T15:01:21.989Z,14.55
2023-02-17T15:03:49.983Z,15.07
2023-02-17T15:06:19.470Z,18.05
2023-02-17T15:08:49.259Z,15.93
2023-02-17T15:11:19.840Z,15.85
2023-02-17T15:13:48.453Z,14.93
2023-02-17T15:16:16.697Z,13.13
2023-02-17T15:18:45.860Z,17.40
2023-02-17T15:21:23.870Z,16.67
2023-02-17T15:23:51.628Z,17.13
2023-02-17T15:26:19.858Z,16.75
2023-02-17T15:28:47.682Z,19.50
2023-02-17T15:31:16.669Z,16.60
2023-02-17T15:33:46.028Z,22.45
2023-02-17T15:36:15.487Z,33.35
2023-02-17T15:38:43.269Z,16.55
2023-02-17T15:41:15.502Z,15.93
2023-02-17T15:43:45.258Z,21.85
2023-02-17T15:46:15.385Z,13.95
2023-02-17T15:48:43.991Z,19.15
2023-02-17T15:51:14.997Z,15.05
2023-02-17T15:53:43.397Z,17.17
2023-02-17T15:56:13.522Z,14.00
2023-02-17T15:58:41.350Z,17.50
2023-02-17T16:01:14.786Z,13.48
2023-02-17T16:03:42.561Z,13.48
2023-02-17T16:06:10.876Z,18.33
2023-02-17T16:08:40.055Z,15.85
2023-02-17T16:11:11.392Z,11.23
2023-02-17T16:13:39.069Z,11.82
2023-02-17T16:16:10.935Z,14.27
2023-02-17T16:18:38.975Z,16.42
2023-02-17T16:21:07.135Z,18.13
2023-02-17T16:23:34.814Z,16.10
2023-02-17T16:26:04.042Z,14.02
2023-02-17T16:28:32.456Z,11.85
2023-02-17T16:31:00.376Z,18.70
2023-02-17T16:33:28.085Z,16.70
2023-02-17T16:35:55.754Z,17.30
2023-02-17T16:38:24.816Z,18.92
2023-02-17T16:40:54.652Z,17.10
2023-02-17T16:43:25.329Z,15.13
2023-02-17T16:45:54.593Z,19.33
2023-02-17T16:48:24.054Z,14.70
2023-02-17T16:50:52.382Z,20.85
2023-02-17T16:53:20.206Z,15.38
2023-02-17T16:55:49.122Z,14.30
2023-02-17T16:58:19.825Z,12.32
2023-02-17T17:00:49.840Z,14.90
2023-02-17T17:03:17.730Z,15.38
2023-02-17T17:05:46.229Z,16.98
2023-02-17T17:08:16.314Z,19.90
2023-02-17T17:10:44.954Z,19.60
2023-02-17T17:13:13.123Z,15.02
2023-02-17T17:15:43.130Z,22.80
2023-02-17T17:18:19.817Z,13.23
2023-02-17T17:20:48.079Z,17.27
2023-02-17T17:23:15.880Z,15.07
2023-02-17T17:25:46.659Z,21.38
2023-02-17T17:28:15.591Z,14.00
2023-02-17T17:30:44.113Z,16.90
2023-02-17T17:33:13.228Z,15.95
2023-02-17T17:35:41.113Z,13.73
2023-02-17T17:38:10.509Z,18.25
2023-02-17T17:40:53.257Z,18.67
2023-02-17T17:43:23.251Z,17.33
2023-02-17T17:45:52.337Z,10.13
2023-02-17T17:48:21.638Z,18.55
2023-02-17T17:50:49.869Z,19.77
2023-02-17T17:53:17.634Z,12.95
2023-02-17T17:55:46.765Z,15.63
2023-02-17T17:58:16.177Z,18.50
2023-02-17T18:00:44.549Z,20.70
2023-02-17T18:03:12.166Z,15.43
2023-02-17T18:05:41.291Z,15.75
2023-02-17T18:08:09.374Z,22.13
2023-02-17T18:10:39.056Z,10.32
2023-02-17T18:13:08.837Z,12.80
2023-02-17T18:15:36.573Z,19.50
2023-02-17T18:18:04.462Z,19.60
2023-02-17T18:20:32.100Z,16.25
2023-02-17T18:23:01.186Z,17.58
2023-02-17T18:25:28.823Z,13.40
2023-02-17T18:27:56.955Z,19.50
2023-02-17T18:30:25.042Z,21.13
2023-02-17T18:32:52.779Z,16.00
2023-02-17T18:35:21.320Z,14.05
2023-02-17T18:37:49.162Z,21.08
2023-02-17T18:40:20.419Z,20.77
2023-02-17T18:42:49.163Z,16.35
2023-02-17T18:45:17.806Z,18.05
2023-02-17T18:47:46.174Z,15.15
2023-02-17T18:50:15.020Z,19.63
2023-02-17T18:52:43.732Z,20.83
2023-02-17T18:55:11.851Z,17.02
2023-02-17T18:57:41.058Z,24.30
2023-02-17T19:00:10.709Z,16.00
2023-02-17T19:02:39.471Z,19.65
2023-02-17T19:05:09.344Z,18.85
2023-02-17T19:07:37.885Z,16.40
2023-02-17T19:10:06.999Z,14.90
2023-02-17T19:12:35.211Z,12.82
2023-02-17T19:15:05.122Z,18.25
2023-02-17T19:17:33.050Z,14.50
2023-02-17T19:20:00.785Z,23.52
2023-02-17T19:22:28.917Z,17.63
2023-02-17T19:24:56.843Z,17.70
2023-02-17T19:27:24.573Z,15.95
2023-02-17T19:29:52.310Z,18.38
2023-02-17T19:32:21.575Z,19.50
2023-02-17T19:34:49.234Z,21.15
2023-02-17T19:37:16.989Z,16.40
2023-02-17T19:39:45.506Z,10.45
2023-02-17T19:42:13.647Z,15.88
2023-02-17T19:44:41.458Z,14.57
2023-02-17T19:47:09.134Z,20.15
2023-02-17T19:49:38.523Z,19.88
2023-02-17T19:52:07.476Z,21.67
2023-02-17T19:54:35.459Z,20.92
2023-02-17T19:57:03.543Z,17.58
2023-02-17T19:59:32.971Z,19.08
2023-02-17T20:02:00.765Z,17.17
2023-02-17T20:04:28.727Z,14.95
2023-02-17T20:06:58.504Z,21.48
2023-02-17T20:09:26.419Z,13.65
2023-02-17T20:11:54.219Z,19.63
2023-02-17T20:14:22.803Z,19.55
2023-02-17T20:16:53.131Z,18.15
2023-02-17T20:19:20.931Z,12.65
2023-02-17T20:21:48.704Z,19.80
2023-02-17T20:24:18.135Z,18.70
2023-02-17T20:26:50.998Z,20.45
2023-02-17T20:29:18.799Z,18.02
2023-02-17T20:31:46.623Z,22.27
2023-02-17T20:34:25.709Z,30.40
2023-02-17T20:36:53.636Z,15.65
2023-02-17T20:39:23.181Z,16.92
2023-02-17T20:41:51.275Z,14.27
2023-02-17T20:44:19.377Z,18.52
2023-02-17T20:46:47.286Z,15.07
2023-02-17T20:49:16.497Z,21.83
2023-02-17T20:51:44.259Z,16.15
2023-02-17T20:54:12.042Z,27.73
2023-02-17T20:56:42.729Z,15.63
2023-02-17T20:59:15.000Z,20.77
2023-02-17T21:01:43.416Z,15.23
2023-02-17T21:04:13.976Z,25.23
2023-02-17T21:06:43.142Z,26.13
2023-02-17T21:09:14.769Z,14.52
2023-02-17T21:11:44.415Z,21.83
2023-02-17T21:14:13.123Z,13.43
2023-02-17T21:16:40.908Z,17.92
2023-02-17T21:19:09.056Z,21.42
2023-02-17T21:21:36.968Z,17.20
2023-02-17T21:24:05.113Z,15.30
2023-02-17T21:26:33.755Z,18.17
2023-02-17T21:29:04.033Z,12.63
2023-02-17T21:31:33.684Z,19.63
2023-02-17T21:34:01.749Z,22.13
2023-02-17T21:36:30.032Z,14.98
2023-02-17T21:38:59.280Z,26.42
2023-02-17T21:41:29.896Z,15.80
2023-02-17T21:44:16.205Z,16.13
2023-02-17T21:46:46.392Z,22.77
2023-02-17T21:49:14.304Z,20.55
2023-02-17T21:51:42.179Z,19.38
2023-02-17T21:54:10.510Z,15.02
2023-02-17T21:56:39.256Z,14.98
2023-02-17T21:59:07.621Z,11.55
2023-02-17T22:01:36.591Z,22.13
2023-02-17T22:04:06.373Z,20.13
2023-02-17T22:06:36.271Z,17.98
2023-02-17T22:09:05.964Z,20.50
2023-02-17T22:11:34.988Z,17.30
2023-02-17T22:14:04.878Z,14.98
2023-02-17T22:16:36.029Z,19.30
2023-02-17T22:19:06.502Z,19.63
2023-02-17T22:21:34.997Z,24.65
2023-02-17T22:24:03.597Z,13.98
2023-02-17T22:26:31.732Z,20.23
2023-02-17T22:28:59.730Z,26.15
2023-02-17T22:31:29.635Z,17.83
2023-02-17T22:33:58.926Z,21.85
2023-02-17T22:36:28.792Z,19.75
2023-02-17T22:38:57.164Z,20.88
2023-02-17T22:41:26.873Z,20.00
2023-02-17T22:43:55.839Z,21.95
2023-02-17T22:46:25.327Z,20.52
2023-02-17T22:48:53.889Z,27.13
2023-02-17T22:51:23.445Z,23.27
2023-02-17T22:53:53.147Z,16.48
2023-02-17T22:56:21.717Z,26.52
2023-02-17T22:58:53.898Z,17.55
2023-02-17T23:01:21.724Z,22.85
2023-02-17T23:03:53.025Z,23.48
2023-02-17T23:06:23.284Z,19.58
2023-02-17T23:08:53.871Z,16.95
2023-02-17T23:11:39.047Z,18.25
2023-02-17T23:14:07.054Z,15.52
2023-02-17T23:16:34.881Z,17.52
2023-02-17T23:19:02.656Z,21.98
2023-02-17T23:21:30.365Z,18.75
2023-02-17T23:23:59.461Z,19.25
2023-02-17T23:26:27.787Z,17.80
2023-02-17T23:28:55.972Z,18.83
2023-02-17T23:31:23.808Z,24.35
2023-02-17T23:33:51.631Z,20.50
2023-02-17T23:36:19.319Z,24.38
2023-02-17T23:38:47.020Z,20.05
2023-02-17T23:41:16.175Z,22.48
2023-02-17T23:43:43.864Z,18.58
2023-02-17T23:46:11.801Z,18.67
2023-02-17T23:48:39.709Z,15.02
2023-02-17T23:51:07.762Z,13.73
2023-02-17T23:53:35.740Z,19.55
2023-02-17T23:56:05.779Z,20.70
2023-02-17T23:58:35.785Z,11.52
